createdAt,value
2019-01-06T00:00:31.322Z,0.00
2019-01-06T00:01:31.631Z,0.00
2019-01-06T00:02:31.780Z,0.00
2019-01-06T00:03:31.852Z,0.00
2019-01-06T00:04:31.962Z,0.00
2019-01-06T00:05:31.389Z,0.00
2019-01-06T00:06:32.900Z,0.00
2019-01-06T00:07:32.739Z,0.00
2019-01-06T00:08:32.975Z,0.00
2019-01-06T00:09:33.066Z,0.00
2019-01-06T00:10:33.194Z,0.00
2019-01-06T00:11:32.797Z,0.00
2019-01-06T00:13:33.767Z,0.00
2019-01-06T00:14:33.833Z,0.00
2019-01-06T00:15:33.993Z,0.00
2019-01-06T00:16:34.343Z,0.00
2019-01-06T00:17:34.982Z,0.00
2019-01-06T00:18:34.839Z,0.00
2019-01-06T00:19:35.225Z,0.00
2019-01-06T00:20:35.443Z,0.00
2019-01-06T00:21:35.874Z,0.00
2019-01-06T00:22:35.313Z,0.00
2019-01-06T00:23:36.321Z,0.00
2019-01-06T00:24:36.146Z,0.00
2019-01-06T00:25:36.369Z,0.00
2019-01-06T00:26:36.727Z,0.00
2019-01-06T00:27:37.062Z,0.00
2019-01-06T00:28:37.055Z,0.00
2019-01-06T00:29:38.245Z,0.00
2019-01-06T00:30:38.259Z,0.00
2019-01-06T00:31:37.996Z,0.00
2019-01-06T00:32:38.430Z,0.00
2019-01-06T00:33:38.763Z,0.00
2019-01-06T00:34:38.481Z,0.00
2019-01-06T00:35:39.800Z,0.00
2019-01-06T00:36:39.586Z,0.00
2019-01-06T00:37:39.774Z,0.00
2019-01-06T00:38:40.140Z,0.00
2019-01-06T00:39:40.594Z,0.00
2019-01-06T00:40:40.203Z,0.00
2019-01-06T00:41:41.107Z,0.00
2019-01-06T00:42:41.002Z,0.00
2019-01-06T00:43:41.271Z,0.00
2019-01-06T00:44:41.355Z,0.00
2019-01-06T00:45:41.483Z,0.00
2019-01-06T00:46:41.196Z,0.00
2019-01-06T00:47:42.141Z,0.00
2019-01-06T00:48:42.350Z,0.00
2019-01-06T00:49:42.843Z,0.00
2019-01-06T00:50:42.833Z,0.00
2019-01-06T00:51:42.981Z,0.00
2019-01-06T00:52:42.580Z,0.00
2019-01-06T00:53:43.478Z,0.00
2019-01-06T00:54:43.674Z,0.00
2019-01-06T00:55:43.988Z,0.00
2019-01-06T00:56:44.205Z,0.00
2019-01-06T00:57:44.379Z,0.00
2019-01-06T00:58:44.909Z,0.00
2019-01-06T00:59:44.682Z,0.00
2019-01-06T01:00:44.953Z,0.00
2019-01-06T01:01:45.105Z,0.00
2019-01-06T01:02:45.536Z,0.00
2019-01-06T01:03:44.813Z,0.00
2019-01-06T01:04:46.065Z,0.00
2019-01-06T01:05:46.247Z,0.00
2019-01-06T01:06:46.474Z,0.00
2019-01-06T01:07:46.576Z,0.00
2019-01-06T01:08:46.698Z,0.00
2019-01-06T01:09:46.376Z,0.00
2019-01-06T01:10:47.092Z,0.00
2019-01-06T01:11:47.215Z,0.00
2019-01-06T01:13:50.646Z,0.00
2019-01-06T01:14:47.541Z,0.00
2019-01-06T01:15:47.124Z,0.00
2019-01-06T01:16:48.329Z,0.00
2019-01-06T01:17:48.216Z,0.00
2019-01-06T01:18:48.542Z,0.00
2019-01-06T01:19:48.557Z,0.00
2019-01-06T01:20:48.769Z,0.00
2019-01-06T01:21:48.502Z,0.00
2019-01-06T01:22:49.247Z,0.00
2019-01-06T01:23:49.239Z,0.00
2019-01-06T01:24:49.493Z,0.00
2019-01-06T01:25:49.614Z,0.00
2019-01-06T01:26:49.693Z,0.00
2019-01-06T01:27:49.604Z,0.00
2019-01-06T01:28:50.309Z,0.00
2019-01-06T01:29:50.574Z,0.00
2019-01-06T01:30:51.064Z,0.00
2019-01-06T01:31:51.268Z,0.00
2019-01-06T01:32:51.448Z,0.00
2019-01-06T01:33:51.347Z,0.00
2019-01-06T01:34:52.325Z,0.00
2019-01-06T01:35:52.303Z,0.00
2019-01-06T01:36:52.626Z,0.00
2019-01-06T01:37:52.761Z,0.00
2019-01-06T01:38:53.159Z,0.00
2019-01-06T01:39:52.860Z,0.00
2019-01-06T01:40:54.021Z,0.00
2019-01-06T01:41:53.856Z,0.00
2019-01-06T01:42:53.841Z,0.00
2019-01-06T01:43:54.051Z,0.00
2019-01-06T01:44:54.362Z,0.00
2019-01-06T01:45:54.285Z,0.00
2019-01-06T01:46:55.312Z,0.00
2019-01-06T01:47:55.254Z,0.00
2019-01-06T01:48:55.588Z,0.00
2019-01-06T01:49:55.759Z,0.00
2019-01-06T01:50:55.967Z,0.00
2019-01-06T01:51:55.669Z,0.00
2019-01-06T01:52:56.864Z,0.00
2019-01-06T01:53:56.919Z,0.00
2019-01-06T01:54:56.987Z,0.00
2019-01-06T01:55:57.190Z,0.00
2019-01-06T01:56:57.238Z,0.00
2019-01-06T01:57:56.854Z,0.00
2019-01-06T01:58:57.675Z,0.00
2019-01-06T01:59:58.521Z,0.00
2019-01-06T02:00:58.127Z,0.00
2019-01-06T02:01:58.256Z,0.00
2019-01-06T02:02:58.394Z,0.00
2019-01-06T02:03:57.965Z,0.00
2019-01-06T02:04:58.751Z,0.00
2019-01-06T02:05:58.876Z,0.00
2019-01-06T02:06:59.055Z,0.00
2019-01-06T02:07:59.152Z,0.00
2019-01-06T02:08:59.627Z,0.00
2019-01-06T02:09:59.149Z,0.00
2019-01-06T02:11:00.183Z,0.00
2019-01-06T02:12:00.450Z,0.00
2019-01-06T02:13:00.655Z,0.00
2019-01-06T02:14:00.789Z,0.00
2019-01-06T02:15:00.881Z,0.00
2019-01-06T02:16:00.533Z,0.00
2019-01-06T02:17:01.487Z,0.00
2019-01-06T02:18:01.704Z,0.00
2019-01-06T02:19:02.053Z,0.00
2019-01-06T02:20:02.218Z,0.00
2019-01-06T02:21:02.159Z,0.00
2019-01-06T02:22:02.593Z,0.00
2019-01-06T02:23:03.472Z,0.00
2019-01-06T02:24:03.587Z,0.00
2019-01-06T02:25:03.588Z,0.00
2019-01-06T02:26:04.005Z,0.00
2019-01-06T02:27:05.519Z,0.00
2019-01-06T02:28:04.326Z,0.00
2019-01-06T02:29:04.832Z,0.00
2019-01-06T02:30:04.918Z,0.00
2019-01-06T02:31:05.031Z,0.00
2019-01-06T02:33:04.714Z,0.00
2019-01-06T02:34:05.640Z,0.00
2019-01-06T02:35:06.187Z,0.00
2019-01-06T02:36:06.272Z,0.00
2019-01-06T02:37:06.492Z,0.00
2019-01-06T02:38:06.805Z,0.00
2019-01-06T02:39:06.654Z,0.00
2019-01-06T02:40:07.225Z,0.00
2019-01-06T02:41:07.848Z,0.00
2019-01-06T02:42:07.648Z,0.00
2019-01-06T02:43:07.847Z,0.00
2019-01-06T02:44:08.041Z,0.00
2019-01-06T02:45:07.654Z,0.00
2019-01-06T02:46:08.397Z,0.00
2019-01-06T02:47:08.993Z,0.00
2019-01-06T02:48:08.754Z,0.00
2019-01-06T02:49:08.928Z,0.00
2019-01-06T02:50:08.931Z,0.00
2019-01-06T02:51:08.638Z,0.00
2019-01-06T02:52:09.401Z,0.00
2019-01-06T02:53:09.891Z,0.00
2019-01-06T02:54:09.880Z,0.00
2019-01-06T02:55:10.125Z,0.00
2019-01-06T02:56:10.331Z,0.00
2019-01-06T02:57:09.801Z,0.00
2019-01-06T02:58:10.973Z,0.00
2019-01-06T02:59:11.307Z,0.00
2019-01-06T03:00:11.470Z,0.00
2019-01-06T03:01:11.633Z,0.00
2019-01-06T03:02:11.758Z,0.00
2019-01-06T03:03:11.707Z,0.00
2019-01-06T03:04:13.185Z,0.00
2019-01-06T03:05:13.227Z,0.00
2019-01-06T03:06:12.892Z,0.00
2019-01-06T03:07:13.040Z,0.00
2019-01-06T03:08:13.460Z,0.00
2019-01-06T03:09:13.007Z,0.00
2019-01-06T03:10:14.199Z,0.00
2019-01-06T03:11:14.196Z,0.00
2019-01-06T03:12:14.247Z,0.00
2019-01-06T03:13:14.617Z,0.00
2019-01-06T03:14:14.708Z,0.00
2019-01-06T03:15:14.194Z,0.00
2019-01-06T03:16:15.375Z,0.00
2019-01-06T03:17:15.640Z,0.00
2019-01-06T03:18:15.851Z,0.00
2019-01-06T03:19:16.091Z,0.00
2019-01-06T03:20:16.583Z,0.00
2019-01-06T03:21:16.147Z,0.00
2019-01-06T03:22:17.209Z,0.00
2019-01-06T03:23:17.136Z,0.00
2019-01-06T03:24:17.314Z,0.00
2019-01-06T03:25:17.411Z,0.00
2019-01-06T03:26:17.915Z,0.00
2019-01-06T03:27:17.762Z,0.00
2019-01-06T03:28:18.897Z,0.00
2019-01-06T03:29:18.749Z,0.00
2019-01-06T03:31:18.890Z,0.00
2019-01-06T03:32:18.985Z,0.00
2019-01-06T03:33:18.738Z,0.00
2019-01-06T03:34:19.713Z,0.00
2019-01-06T03:35:19.886Z,0.00
2019-01-06T03:36:19.558Z,0.00
2019-01-06T03:37:19.866Z,0.00
2019-01-06T03:38:19.752Z,0.00
2019-01-06T03:39:19.740Z,0.00
2019-01-06T03:40:20.823Z,0.00
2019-01-06T03:41:21.072Z,0.00
2019-01-06T03:42:21.436Z,0.00
2019-01-06T03:43:21.717Z,0.00
2019-01-06T03:44:22.191Z,0.00
2019-01-06T03:45:22.130Z,0.00
2019-01-06T03:46:23.320Z,0.00
2019-01-06T03:47:23.305Z,0.00
2019-01-06T03:48:23.274Z,0.00
2019-01-06T03:49:23.516Z,0.00
2019-01-06T03:50:23.525Z,0.00
2019-01-06T03:51:23.394Z,0.00
2019-01-06T03:52:24.250Z,0.00
2019-01-06T03:53:24.293Z,0.00
2019-01-06T03:54:24.106Z,0.00
2019-01-06T03:55:24.172Z,0.00
2019-01-06T03:56:24.580Z,0.00
2019-01-06T03:57:24.182Z,0.00
2019-01-06T03:58:25.828Z,0.00
2019-01-06T03:59:25.856Z,0.00
2019-01-06T04:00:26.096Z,0.00
2019-01-06T04:01:26.160Z,0.00
2019-01-06T04:02:26.424Z,0.00
2019-01-06T04:03:25.921Z,0.00
2019-01-06T04:04:27.093Z,0.00
2019-01-06T04:05:27.073Z,0.00
2019-01-06T04:06:27.460Z,0.00
2019-01-06T04:07:27.675Z,0.00
2019-01-06T04:08:28.032Z,0.00
2019-01-06T04:09:27.759Z,0.00
2019-01-06T04:10:28.790Z,0.00
2019-01-06T04:11:28.641Z,0.00
2019-01-06T04:12:28.793Z,0.00
2019-01-06T04:13:28.905Z,0.00
2019-01-06T04:14:29.173Z,0.00
2019-01-06T04:15:28.715Z,0.00
2019-01-06T04:16:30.109Z,0.00
2019-01-06T04:17:30.179Z,0.00
2019-01-06T04:18:30.164Z,0.00
2019-01-06T04:19:30.355Z,0.00
2019-01-06T04:20:30.605Z,0.00
2019-01-06T04:21:30.242Z,0.00
2019-01-06T04:22:31.477Z,0.00
2019-01-06T04:23:31.654Z,0.00
2019-01-06T04:24:32.081Z,0.00
2019-01-06T04:25:32.205Z,0.00
2019-01-06T04:26:32.326Z,0.00
2019-01-06T04:27:31.812Z,0.00
2019-01-06T04:28:33.371Z,0.00
2019-01-06T04:29:33.043Z,0.00
2019-01-06T04:30:33.215Z,0.00
2019-01-06T04:31:33.276Z,0.00
2019-01-06T04:32:33.378Z,0.00
2019-01-06T04:33:33.532Z,0.00
2019-01-06T04:34:34.435Z,0.00
2019-01-06T04:35:34.548Z,0.00
2019-01-06T04:36:34.555Z,0.00
2019-01-06T04:37:34.813Z,0.00
2019-01-06T04:38:35.133Z,0.00
2019-01-06T04:39:35.710Z,0.00
2019-01-06T04:40:35.486Z,0.00
2019-01-06T04:41:35.639Z,0.00
2019-01-06T04:42:35.887Z,0.00
2019-01-06T04:43:35.919Z,0.00
2019-01-06T04:44:35.739Z,0.00
2019-01-06T04:45:36.899Z,0.00
2019-01-06T04:46:37.106Z,0.00
2019-01-06T04:47:37.177Z,0.00
2019-01-06T04:48:37.360Z,0.00
2019-01-06T04:49:37.655Z,0.00
2019-01-06T04:50:37.926Z,0.00
2019-01-06T04:51:37.699Z,0.00
2019-01-06T04:53:37.894Z,0.00
2019-01-06T04:54:38.236Z,0.00
2019-01-06T04:55:37.638Z,0.00
2019-01-06T04:56:38.556Z,0.00
2019-01-06T04:57:38.326Z,0.00
2019-01-06T04:58:38.781Z,0.00
2019-01-06T04:59:39.035Z,0.00
2019-01-06T05:00:44.209Z,0.00
2019-01-06T05:01:38.960Z,0.00
2019-01-06T05:02:40.039Z,0.00
2019-01-06T05:03:39.747Z,0.00
2019-01-06T05:04:39.960Z,0.00
2019-01-06T05:05:40.093Z,0.00
2019-01-06T05:06:40.260Z,0.00
2019-01-06T05:07:39.700Z,0.00
2019-01-06T05:08:41.176Z,0.00
2019-01-06T05:09:41.215Z,0.00
2019-01-06T05:10:41.268Z,0.00
2019-01-06T05:11:41.397Z,0.00
2019-01-06T05:12:41.610Z,0.00
2019-01-06T05:13:41.069Z,0.00
2019-01-06T05:14:42.221Z,0.00
2019-01-06T05:15:42.140Z,0.00
2019-01-06T05:16:42.766Z,0.00
2019-01-06T05:17:42.517Z,0.00
2019-01-06T05:18:42.663Z,0.00
2019-01-06T05:19:42.293Z,0.00
2019-01-06T05:20:43.409Z,0.00
2019-01-06T05:21:43.393Z,0.00
2019-01-06T05:22:43.531Z,0.00
2019-01-06T05:23:43.670Z,0.00
2019-01-06T05:24:43.786Z,0.00
2019-01-06T05:25:43.395Z,0.00
2019-01-06T05:26:44.379Z,0.00
2019-01-06T05:27:44.454Z,0.00
2019-01-06T05:28:44.616Z,0.00
2019-01-06T05:29:44.751Z,0.00
2019-01-06T05:30:44.918Z,0.00
2019-01-06T05:31:44.402Z,0.00
2019-01-06T05:32:45.545Z,0.00
2019-01-06T05:33:45.503Z,0.00
2019-01-06T05:34:45.433Z,0.00
2019-01-06T05:35:45.644Z,0.00
2019-01-06T05:36:45.827Z,0.00
2019-01-06T05:37:45.559Z,0.00
2019-01-06T05:38:46.326Z,0.00
2019-01-06T05:39:46.355Z,0.00
2019-01-06T05:40:46.574Z,0.00
2019-01-06T05:41:46.753Z,0.00
2019-01-06T05:42:47.053Z,0.00
2019-01-06T05:43:46.404Z,0.00
2019-01-06T05:44:47.197Z,0.00
2019-01-06T05:45:47.443Z,0.00
2019-01-06T05:46:47.606Z,0.00
2019-01-06T05:47:47.777Z,0.00
2019-01-06T05:48:48.229Z,0.00
2019-01-06T05:49:47.637Z,0.00
2019-01-06T05:50:48.971Z,0.00
2019-01-06T05:51:49.224Z,0.00
2019-01-06T05:52:49.372Z,0.00
2019-01-06T05:53:49.620Z,0.00
2019-01-06T05:54:50.010Z,0.00
2019-01-06T05:55:49.939Z,0.00
2019-01-06T05:56:50.668Z,0.00
2019-01-06T05:57:50.501Z,0.00
2019-01-06T05:58:50.728Z,0.00
2019-01-06T05:59:51.063Z,0.00
2019-01-06T06:00:51.086Z,0.00
2019-01-06T06:01:50.939Z,0.00
2019-01-06T06:02:52.135Z,0.00
2019-01-06T06:03:52.369Z,0.00
2019-01-06T06:04:52.318Z,0.00
2019-01-06T06:05:52.678Z,0.00
2019-01-06T06:06:52.860Z,0.00
2019-01-06T06:07:52.577Z,0.00
2019-01-06T06:08:53.652Z,0.00
2019-01-06T06:09:53.698Z,0.00
2019-01-06T06:10:53.797Z,0.00
2019-01-06T06:11:54.073Z,0.00
2019-01-06T06:12:54.293Z,0.00
2019-01-06T06:13:53.940Z,0.00
2019-01-06T06:15:55.061Z,0.00
2019-01-06T06:16:55.121Z,0.00
2019-01-06T06:17:55.367Z,0.00
2019-01-06T06:18:55.573Z,0.00
2019-01-06T06:19:54.898Z,0.00
2019-01-06T06:20:56.014Z,0.00
2019-01-06T06:21:56.112Z,0.00
2019-01-06T06:22:56.347Z,0.00
2019-01-06T06:23:56.519Z,0.00
2019-01-06T06:24:56.531Z,0.00
2019-01-06T06:25:56.062Z,0.00
2019-01-06T06:26:56.967Z,0.00
2019-01-06T06:27:57.377Z,0.00
2019-01-06T06:28:57.483Z,0.00
2019-01-06T06:29:57.646Z,0.00
2019-01-06T06:30:58.000Z,0.00
2019-01-06T06:31:57.563Z,0.00
2019-01-06T06:32:58.950Z,0.00
2019-01-06T06:33:59.033Z,0.00
2019-01-06T06:34:59.095Z,0.00
2019-01-06T06:35:59.085Z,0.00
2019-01-06T06:36:59.162Z,0.00
2019-01-06T06:37:58.758Z,0.00
2019-01-06T06:38:59.615Z,0.00
2019-01-06T06:39:59.831Z,0.00
2019-01-06T06:41:00.040Z,0.00
2019-01-06T06:42:00.452Z,1.00
2019-01-06T06:43:00.502Z,0.00
2019-01-06T06:44:00.323Z,0.00
2019-01-06T06:45:01.633Z,0.00
2019-01-06T06:46:01.315Z,1.00
2019-01-06T06:47:01.585Z,1.00
2019-01-06T06:48:01.928Z,1.00
2019-01-06T06:49:01.726Z,1.00
2019-01-06T06:50:01.631Z,1.00
2019-01-06T06:51:02.344Z,2.00
2019-01-06T06:52:02.427Z,2.00
2019-01-06T06:53:02.621Z,3.00
2019-01-06T06:54:02.829Z,4.00
2019-01-06T06:55:02.863Z,5.00
2019-01-06T06:56:03.778Z,5.00
2019-01-06T06:57:04.536Z,7.00
2019-01-06T06:58:04.825Z,8.00
2019-01-06T06:59:04.896Z,9.00
2019-01-06T07:00:05.283Z,11.00
2019-01-06T07:01:05.100Z,13.00
2019-01-06T07:02:05.472Z,16.00
2019-01-06T07:03:06.265Z,19.00
2019-01-06T07:04:06.439Z,23.00
2019-01-06T07:05:06.757Z,28.00
2019-01-06T07:06:07.052Z,33.00
2019-01-06T07:07:06.877Z,38.00
2019-01-06T07:08:07.589Z,46.00
2019-01-06T07:09:08.206Z,53.00
2019-01-06T07:10:08.206Z,61.00
2019-01-06T07:11:08.223Z,69.00
2019-01-06T07:12:08.498Z,77.00
2019-01-06T07:13:08.434Z,86.00
2019-01-06T07:14:09.313Z,93.00
2019-01-06T07:15:10.073Z,101.00
2019-01-06T07:16:09.903Z,110.00
2019-01-06T07:17:10.212Z,119.00
2019-01-06T07:18:10.237Z,132.00
2019-01-06T07:19:09.823Z,142.00
2019-01-06T07:20:13.452Z,156.00
2019-01-06T07:21:10.722Z,173.00
2019-01-06T07:22:10.576Z,188.00
2019-01-06T07:23:11.009Z,204.00
2019-01-06T07:24:11.447Z,218.00
2019-01-06T07:26:11.764Z,254.00
2019-01-06T07:27:12.072Z,275.00
2019-01-06T07:28:12.214Z,295.00
2019-01-06T07:29:12.946Z,310.00
2019-01-06T07:30:12.618Z,327.00
2019-01-06T07:31:12.244Z,334.00
2019-01-06T07:32:13.469Z,336.00
2019-01-06T07:33:14.028Z,325.00
2019-01-06T07:34:13.504Z,317.00
2019-01-06T07:35:13.875Z,326.00
2019-01-06T07:36:14.016Z,352.00
2019-01-06T07:37:14.562Z,380.00
2019-01-06T07:38:14.776Z,403.00
2019-01-06T07:39:14.629Z,419.00
2019-01-06T07:40:14.760Z,440.00
2019-01-06T07:41:14.874Z,452.00
2019-01-06T07:42:14.286Z,483.00
2019-01-06T07:43:15.486Z,495.00
2019-01-06T07:44:15.806Z,499.00
2019-01-06T07:45:15.907Z,516.00
2019-01-06T07:46:16.075Z,549.00
2019-01-06T07:47:16.229Z,605.00
2019-01-06T07:48:16.154Z,657.00
2019-01-06T07:49:17.091Z,690.00
2019-01-06T07:50:17.019Z,721.00
2019-01-06T07:51:17.176Z,754.00
2019-01-06T07:52:17.365Z,783.00
2019-01-06T07:53:17.353Z,815.00
2019-01-06T07:54:18.767Z,839.00
2019-01-06T07:55:18.389Z,878.00
2019-01-06T07:56:18.493Z,915.00
2019-01-06T07:57:18.224Z,947.00
2019-01-06T07:58:19.065Z,979.00
2019-01-06T07:59:19.047Z,997.00
2019-01-06T08:00:18.909Z,1006.00
2019-01-06T08:01:52.008Z,1013.00
2019-01-06T08:02:19.823Z,1044.00
2019-01-06T08:03:19.657Z,1103.00
2019-01-06T08:04:19.840Z,1154.00
2019-01-06T08:05:20.105Z,1203.00
2019-01-06T08:06:20.056Z,1244.00
2019-01-06T08:07:21.098Z,1273.00
2019-01-06T08:08:21.070Z,1284.00
2019-01-06T08:09:21.027Z,1247.00
2019-01-06T08:10:21.251Z,1186.00
2019-01-06T08:11:21.767Z,1160.00
2019-01-06T08:12:21.506Z,1175.00
2019-01-06T08:13:22.636Z,1199.00
2019-01-06T08:14:23.065Z,1244.00
2019-01-06T08:15:22.846Z,1293.00
2019-01-06T08:16:23.303Z,1344.00
2019-01-06T08:17:23.582Z,1418.00
2019-01-06T08:18:23.304Z,1508.00
2019-01-06T08:19:24.184Z,1642.00
2019-01-06T08:20:24.654Z,1829.00
2019-01-06T08:21:24.834Z,1933.00
2019-01-06T08:22:25.014Z,1965.00
2019-01-06T08:23:25.447Z,1981.00
2019-01-06T08:24:25.032Z,2025.00
2019-01-06T08:25:26.057Z,2052.00
2019-01-06T08:26:26.073Z,2226.00
2019-01-06T08:27:26.233Z,2432.00
2019-01-06T08:28:26.139Z,2613.00
2019-01-06T08:29:26.324Z,2955.00
2019-01-06T08:30:26.021Z,3257.00
2019-01-06T08:31:27.016Z,3256.00
2019-01-06T08:32:27.164Z,3090.00
2019-01-06T08:33:27.625Z,2846.00
2019-01-06T08:34:27.791Z,2615.00
2019-01-06T08:35:27.938Z,2404.00
2019-01-06T08:36:27.355Z,2337.00
2019-01-06T08:37:28.416Z,2297.00
2019-01-06T08:38:28.525Z,2259.00
2019-01-06T08:39:28.736Z,2200.00
2019-01-06T08:40:28.930Z,2086.00
2019-01-06T08:41:29.649Z,2022.00
2019-01-06T08:42:29.032Z,2003.00
2019-01-06T08:43:30.308Z,2065.00
2019-01-06T08:44:30.459Z,2108.00
2019-01-06T08:45:30.610Z,2069.00
2019-01-06T08:46:30.764Z,2002.00
2019-01-06T08:47:30.929Z,1953.00
2019-01-06T08:48:30.383Z,1946.00
2019-01-06T08:49:31.807Z,2010.00
2019-01-06T08:50:31.958Z,2232.00
2019-01-06T08:51:32.103Z,2470.00
2019-01-06T08:52:32.176Z,2781.00
2019-01-06T08:53:32.894Z,3179.00
2019-01-06T08:54:32.448Z,3408.00
2019-01-06T08:55:36.328Z,3507.00
2019-01-06T08:56:33.560Z,3581.00
2019-01-06T08:57:33.973Z,3640.00
2019-01-06T08:58:34.090Z,3541.00
2019-01-06T08:59:34.603Z,3373.00
2019-01-06T09:00:34.062Z,3167.00
2019-01-06T09:01:35.238Z,3086.00
2019-01-06T09:02:35.339Z,3128.00
2019-01-06T09:03:35.656Z,3244.00
2019-01-06T09:04:36.107Z,3449.00
2019-01-06T09:05:35.994Z,3671.00
2019-01-06T09:06:35.921Z,3816.00
2019-01-06T09:07:36.759Z,3832.00
2019-01-06T09:08:36.825Z,4026.00
2019-01-06T09:09:45.334Z,4605.00
2019-01-06T09:10:37.393Z,4874.00
2019-01-06T09:11:37.688Z,5040.00
2019-01-06T09:12:42.900Z,5150.00
2019-01-06T09:13:38.383Z,4784.00
2019-01-06T09:14:38.190Z,4176.00
2019-01-06T09:15:38.392Z,3663.00
2019-01-06T09:16:38.765Z,3463.00
2019-01-06T09:17:39.017Z,3273.00
2019-01-06T09:18:38.836Z,3022.00
2019-01-06T09:19:39.793Z,2939.00
2019-01-06T09:20:39.771Z,3103.00
2019-01-06T09:21:39.949Z,3257.00
2019-01-06T09:22:40.087Z,3332.00
2019-01-06T09:23:40.447Z,3332.00
2019-01-06T09:24:39.950Z,3341.00
2019-01-06T09:25:41.475Z,3523.00
2019-01-06T09:26:41.098Z,3741.00
2019-01-06T09:27:41.230Z,3943.00
2019-01-06T09:28:41.251Z,4085.00
2019-01-06T09:29:41.536Z,4159.00
2019-01-06T09:30:40.745Z,4205.00
2019-01-06T09:31:41.760Z,4282.00
2019-01-06T09:32:42.043Z,4475.00
2019-01-06T09:33:42.419Z,4790.00
2019-01-06T09:34:42.673Z,5025.00
2019-01-06T09:35:43.027Z,5138.00
2019-01-06T09:36:42.758Z,5069.00
2019-01-06T09:37:44.256Z,5077.00
2019-01-06T09:38:44.137Z,5259.00
2019-01-06T09:39:44.501Z,5659.00
2019-01-06T09:40:44.424Z,6177.00
2019-01-06T09:41:44.919Z,6276.00
2019-01-06T09:42:44.652Z,5965.00
2019-01-06T09:43:45.780Z,5633.00
2019-01-06T09:44:46.145Z,5527.00
2019-01-06T09:45:46.325Z,5577.00
2019-01-06T09:46:47.108Z,5571.00
2019-01-06T09:47:46.779Z,5451.00
2019-01-06T09:48:46.297Z,5281.00
2019-01-06T09:49:47.639Z,5197.00
2019-01-06T09:50:47.757Z,5150.00
2019-01-06T09:51:48.053Z,5095.00
2019-01-06T09:52:48.468Z,4913.00
2019-01-06T09:53:48.613Z,4791.00
2019-01-06T09:54:48.516Z,4515.00
2019-01-06T09:55:49.586Z,4400.00
2019-01-06T09:56:49.537Z,4375.00
2019-01-06T09:57:49.725Z,4442.00
2019-01-06T09:58:50.095Z,4537.00
2019-01-06T09:59:50.322Z,4607.00
2019-01-06T10:00:49.992Z,4774.00
2019-01-06T10:01:52.812Z,4893.00
2019-01-06T10:02:51.175Z,5057.00
2019-01-06T10:03:51.442Z,5360.00
2019-01-06T10:04:54.008Z,5757.00
2019-01-06T10:05:51.274Z,6148.00
2019-01-06T10:06:54.166Z,6442.00
2019-01-06T10:07:52.218Z,6631.00
2019-01-06T10:08:51.977Z,6648.00
2019-01-06T10:09:52.135Z,6618.00
2019-01-06T10:10:52.504Z,6530.00
2019-01-06T10:11:52.660Z,6334.00
2019-01-06T10:12:52.383Z,6293.00
2019-01-06T10:13:53.367Z,6463.00
2019-01-06T10:14:53.031Z,6561.00
2019-01-06T10:15:53.285Z,6465.00
2019-01-06T10:16:53.622Z,6264.00
2019-01-06T10:17:53.750Z,6057.00
2019-01-06T10:18:53.502Z,5939.00
2019-01-06T10:19:54.564Z,5964.00
2019-01-06T10:20:57.367Z,6006.00
2019-01-06T10:21:54.414Z,6133.00
2019-01-06T10:22:54.543Z,6189.00
2019-01-06T10:23:54.736Z,6358.00
2019-01-06T10:24:54.353Z,6623.00
2019-01-06T10:25:55.484Z,6864.00
2019-01-06T10:26:55.273Z,7037.00
2019-01-06T10:27:55.069Z,7146.00
2019-01-06T10:28:55.827Z,7236.00
2019-01-06T10:29:56.251Z,7161.00
2019-01-06T10:30:55.722Z,6776.00
2019-01-06T10:31:56.727Z,6335.00
2019-01-06T10:32:56.797Z,6097.00
2019-01-06T10:33:56.985Z,5981.00
2019-01-06T10:34:57.125Z,6021.00
2019-01-06T10:35:57.377Z,6250.00
2019-01-06T10:36:56.881Z,6473.00
2019-01-06T10:37:57.842Z,6711.00
2019-01-06T10:38:57.963Z,6920.00
2019-01-06T10:39:57.901Z,7075.00
2019-01-06T10:41:01.057Z,7222.00
2019-01-06T10:41:58.267Z,7348.00
2019-01-06T10:42:58.049Z,7336.00
2019-01-06T10:43:59.198Z,7313.00
2019-01-06T10:44:59.046Z,7335.00
2019-01-06T10:45:59.434Z,7234.00
2019-01-06T10:46:59.792Z,7138.00
2019-01-06T10:47:59.799Z,7013.00
2019-01-06T10:48:59.617Z,6835.00
2019-01-06T10:50:00.360Z,6679.00
2019-01-06T10:51:00.622Z,6542.00
2019-01-06T10:52:00.935Z,6596.00
2019-01-06T10:53:00.801Z,6635.00
2019-01-06T10:54:01.041Z,6534.00
2019-01-06T10:55:00.269Z,6641.00
2019-01-06T10:56:01.768Z,7015.00
2019-01-06T10:57:02.033Z,7524.00
2019-01-06T10:58:02.385Z,8086.00
2019-01-06T10:59:04.934Z,8357.00
2019-01-06T11:00:03.367Z,8521.00
2019-01-06T11:01:03.469Z,8438.00
2019-01-06T11:02:03.829Z,8434.00
2019-01-06T11:03:04.860Z,8613.00
2019-01-06T11:04:04.898Z,8947.00
2019-01-06T11:05:04.927Z,9259.00
2019-01-06T11:06:04.739Z,9354.00
2019-01-06T11:07:04.875Z,9211.00
2019-01-06T11:08:05.256Z,9184.00
2019-01-06T11:09:05.589Z,9237.00
2019-01-06T11:10:05.987Z,9205.00
2019-01-06T11:11:06.560Z,8923.00
2019-01-06T11:12:06.554Z,8685.00
2019-01-06T11:13:06.829Z,8787.00
2019-01-06T11:14:07.004Z,9005.00
2019-01-06T11:15:07.190Z,8961.00
2019-01-06T11:16:07.557Z,8601.00
2019-01-06T11:17:07.975Z,8793.00
2019-01-06T11:18:07.760Z,9311.00
2019-01-06T11:19:07.657Z,9379.00
2019-01-06T11:20:08.073Z,9328.00
2019-01-06T11:21:08.659Z,9301.00
2019-01-06T11:22:09.038Z,9197.00
2019-01-06T11:23:08.900Z,8849.00
2019-01-06T11:24:08.914Z,8292.00
2019-01-06T11:25:09.091Z,7998.00
2019-01-06T11:26:09.395Z,8206.00
2019-01-06T11:27:09.543Z,8865.00
2019-01-06T11:28:10.044Z,9385.00
2019-01-06T11:29:10.114Z,9749.00
2019-01-06T11:30:10.368Z,9960.00
2019-01-06T11:31:10.482Z,9987.00
2019-01-06T11:32:10.275Z,9512.00
2019-01-06T11:33:11.268Z,8679.00
2019-01-06T11:34:11.863Z,7877.00
2019-01-06T11:35:12.215Z,7359.00
2019-01-06T11:36:12.328Z,7081.00
2019-01-06T11:37:12.644Z,7022.00
2019-01-06T11:38:13.203Z,7342.00
2019-01-06T11:39:13.305Z,7565.00
2019-01-06T11:40:12.808Z,7871.00
2019-01-06T11:41:13.254Z,8105.00
2019-01-06T11:42:14.157Z,8167.00
2019-01-06T11:43:15.000Z,7918.00
2019-01-06T11:44:14.671Z,7453.00
2019-01-06T11:45:14.661Z,6935.00
2019-01-06T11:46:14.535Z,6592.00
2019-01-06T11:47:14.715Z,6393.00
2019-01-06T11:48:15.353Z,6245.00
2019-01-06T11:49:15.348Z,6195.00
2019-01-06T11:50:15.655Z,6368.00
2019-01-06T11:51:15.453Z,6659.00
2019-01-06T11:52:15.207Z,7002.00
2019-01-06T11:53:16.161Z,7414.00
2019-01-06T11:54:18.714Z,7887.00
2019-01-06T11:55:16.444Z,8372.00
2019-01-06T11:56:15.808Z,8725.00
2019-01-06T11:57:16.191Z,9041.00
2019-01-06T11:58:16.366Z,9207.00
2019-01-06T11:59:17.910Z,9308.00
2019-01-06T12:00:17.851Z,9483.00
2019-01-06T12:01:18.505Z,9435.00
2019-01-06T12:02:18.072Z,9179.00
2019-01-06T12:03:18.260Z,8982.00
2019-01-06T12:04:19.044Z,9027.00
2019-01-06T12:05:19.183Z,9115.00
2019-01-06T12:06:19.134Z,9027.00
2019-01-06T12:07:19.273Z,8920.00
2019-01-06T12:08:19.413Z,8833.00
2019-01-06T12:09:19.776Z,8849.00
2019-01-06T12:10:20.007Z,8930.00
2019-01-06T12:11:20.044Z,8934.00
2019-01-06T12:12:20.272Z,8826.00
2019-01-06T12:13:22.548Z,8740.00
2019-01-06T12:14:20.305Z,8671.00
2019-01-06T12:15:20.415Z,8614.00
2019-01-06T12:16:23.540Z,8577.00
2019-01-06T12:17:20.794Z,8557.00
2019-01-06T12:18:20.926Z,8526.00
2019-01-06T12:19:21.008Z,8406.00
2019-01-06T12:20:21.805Z,8385.00
2019-01-06T12:21:21.848Z,8509.00
2019-01-06T12:22:21.905Z,8805.00
2019-01-06T12:23:22.075Z,9264.00
2019-01-06T12:24:22.187Z,9690.00
2019-01-06T12:25:22.343Z,9936.00
2019-01-06T12:26:22.584Z,10185.00
2019-01-06T12:27:23.417Z,10257.00
2019-01-06T12:28:23.341Z,10119.00
2019-01-06T12:29:23.479Z,9738.00
2019-01-06T12:30:23.357Z,9227.00
2019-01-06T12:31:23.737Z,8790.00
2019-01-06T12:32:24.122Z,8442.00
2019-01-06T12:33:24.263Z,8181.00
2019-01-06T12:34:24.537Z,7947.00
2019-01-06T12:35:24.549Z,7729.00
2019-01-06T12:36:25.211Z,7467.00
2019-01-06T12:37:25.058Z,7257.00
2019-01-06T12:38:25.562Z,7075.00
2019-01-06T12:39:25.244Z,6814.00
2019-01-06T12:40:26.087Z,6576.00
2019-01-06T12:41:26.137Z,6505.00
2019-01-06T12:42:25.773Z,6615.00
2019-01-06T12:43:25.740Z,6754.00
2019-01-06T12:44:27.131Z,6797.00
2019-01-06T12:45:26.899Z,6786.00
2019-01-06T12:46:27.053Z,6594.00
2019-01-06T12:47:27.569Z,6240.00
2019-01-06T12:48:30.521Z,5882.00
2019-01-06T12:49:28.972Z,5666.00
2019-01-06T12:50:28.420Z,5648.00
2019-01-06T12:51:28.988Z,5733.00
2019-01-06T12:52:29.254Z,5777.00
2019-01-06T12:53:29.413Z,5779.00
2019-01-06T12:54:29.340Z,5760.00
2019-01-06T12:55:29.563Z,5740.00